sensor_id;sensor_type;location;lat;lon;timestamp;pressure;altitude;pressure_sealevel;temperature;humidity
48027;BME280;50714;49.208;5.364;2023-02-19T00:07:09;100219.75;;;9.50;93.57
48027;BME280;50714;49.208;5.364;2023-02-19T00:17:09;100213.50;;;9.58;93.21
48027;BME280;50714;49.208;5.364;2023-02-19T00:27:09;100215.53;;;9.56;92.91
48027;BME280;50714;49.208;5.364;2023-02-19T00:37:09;100182.84;;;9.59;93.74
48027;BME280;50714;49.208;5.364;2023-02-19T00:47:10;100204.78;;;9.48;94.81
48027;BME280;50714;49.208;5.364;2023-02-19T00:57:10;100198.75;;;9.46;95.09
48027;BME280;50714;49.208;5.364;2023-02-19T01:07:11;100182.22;;;9.49;94.71
48027;BME280;50714;49.208;5.364;2023-02-19T01:17:11;100192.91;;;9.42;94.57
48027;BME280;50714;49.208;5.364;2023-02-19T01:27:11;100160.09;;;9.39;95.33
48027;BME280;50714;49.208;5.364;2023-02-19T01:37:12;100151.03;;;9.32;96.17
48027;BME280;50714;49.208;5.364;2023-02-19T01:47:14;100164.84;;;9.29;96.23
48027;BME280;50714;49.208;5.364;2023-02-19T01:57:19;100140.63;;;9.29;96.76
48027;BME280;50714;49.208;5.364;2023-02-19T02:07:20;100144.63;;;9.33;96.46
48027;BME280;50714;49.208;5.364;2023-02-19T02:17:56;100149.50;;;9.37;96.71
48027;BME280;50714;49.208;5.364;2023-02-19T02:28:26;100144.41;;;9.42;96.06
48027;BME280;50714;49.208;5.364;2023-02-19T02:38:32;100144.59;;;9.41;95.92
48027;BME280;50714;49.208;5.364;2023-02-19T02:48:40;100135.94;;;9.45;95.51
48027;BME280;50714;49.208;5.364;2023-02-19T02:58:43;100150.63;;;9.43;95.64
48027;BME280;50714;49.208;5.364;2023-02-19T03:08:48;100144.31;;;9.50;95.11
48027;BME280;50714;49.208;5.364;2023-02-19T03:18:53;100144.69;;;9.47;95.22
48027;BME280;50714;49.208;5.364;2023-02-19T03:29:13;100140.31;;;9.46;94.98
48027;BME280;50714;49.208;5.364;2023-02-19T03:39:23;100151.25;;;9.45;95.11
48027;BME280;50714;49.208;5.364;2023-02-19T03:49:48;100153.78;;;9.46;95.81
48027;BME280;50714;49.208;5.364;2023-02-19T03:59:59;100170.69;;;9.40;96.11
48027;BME280;50714;49.208;5.364;2023-02-19T04:10:03;100178.09;;;9.38;96.44
48027;BME280;50714;49.208;5.364;2023-02-19T04:20:07;100188.56;;;9.33;96.08
48027;BME280;50714;49.208;5.364;2023-02-19T04:30:10;100200.00;;;9.35;95.93
48027;BME280;50714;49.208;5.364;2023-02-19T04:40:11;100188.41;;;9.35;96.49
48027;BME280;50714;49.208;5.364;2023-02-19T04:50:11;100204.56;;;9.35;96.10
48027;BME280;50714;49.208;5.364;2023-02-19T05:00:12;100209.78;;;9.36;97.36
48027;BME280;50714;49.208;5.364;2023-02-19T05:10:12;100204.06;;;9.31;97.51
48027;BME280;50714;49.208;5.364;2023-02-19T05:20:13;100213.00;;;9.32;97.01
48027;BME280;50714;49.208;5.364;2023-02-19T05:30:13;100210.13;;;9.33;97.34
48027;BME280;50714;49.208;5.364;2023-02-19T05:40:14;100220.22;;;9.31;96.46
48027;BME280;50714;49.208;5.364;2023-02-19T05:50:14;100231.50;;;9.35;96.71
48027;BME280;50714;49.208;5.364;2023-02-19T06:00:16;100241.13;;;9.29;96.24
48027;BME280;50714;49.208;5.364;2023-02-19T06:10:17;100249.19;;;9.29;96.54
48027;BME280;50714;49.208;5.364;2023-02-19T06:20:18;100256.25;;;9.30;96.40
48027;BME280;50714;49.208;5.364;2023-02-19T06:30:18;100267.88;;;9.31;96.31
48027;BME280;50714;49.208;5.364;2023-02-19T06:40:19;100274.78;;;9.33;96.36
48027;BME280;50714;49.208;5.364;2023-02-19T06:50:19;100291.94;;;9.32;96.74
48027;BME280;50714;49.208;5.364;2023-02-19T07:00:20;100293.94;;;9.38;97.04
48027;BME280;50714;49.208;5.364;2023-02-19T07:10:20;100315.81;;;9.43;96.48
48027;BME280;50714;49.208;5.364;2023-02-19T07:20:20;100332.75;;;9.52;96.63
48027;BME280;50714;49.208;5.364;2023-02-19T07:30:21;100337.63;;;9.56;95.81
48027;BME280;50714;49.208;5.364;2023-02-19T07:40:21;100350.56;;;9.61;95.58
48027;BME280;50714;49.208;5.364;2023-02-19T07:50:21;100350.41;;;9.63;95.28
48027;BME280;50714;49.208;5.364;2023-02-19T08:00:22;100356.88;;;9.76;94.66
48027;BME280;50714;49.208;5.364;2023-02-19T08:10:24;100375.91;;;9.83;94.57
48027;BME280;50714;49.208;5.364;2023-02-19T08:20:51;100378.66;;;9.98;94.35
48027;BME280;50714;49.208;5.364;2023-02-19T08:30:52;100375.31;;;9.96;93.35
48027;BME280;50714;49.208;5.364;2023-02-19T08:40:52;100376.16;;;9.96;93.39
48027;BME280;50714;49.208;5.364;2023-02-19T08:50:58;100380.69;;;9.96;94.06
48027;BME280;50714;49.208;5.364;2023-02-19T09:00:58;100394.09;;;10.12;93.03
48027;BME280;50714;49.208;5.364;2023-02-19T09:11:00;100399.59;;;10.18;93.38
48027;BME280;50714;49.208;5.364;2023-02-19T09:21:04;100424.09;;;10.40;91.76
48027;BME280;50714;49.208;5.364;2023-02-19T09:31:06;100439.03;;;10.50;91.67
48027;BME280;50714;49.208;5.364;2023-02-19T09:41:28;100438.22;;;10.50;90.64
48027;BME280;50714;49.208;5.364;2023-02-19T09:51:31;100454.22;;;10.51;91.21
48027;BME280;50714;49.208;5.364;2023-02-19T10:01:36;100471.88;;;10.62;91.03
48027;BME280;50714;49.208;5.364;2023-02-19T10:11:38;100476.16;;;10.71;89.68
48027;BME280;50714;49.208;5.364;2023-02-19T10:21:40;100483.69;;;10.84;89.14
48027;BME280;50714;49.208;5.364;2023-02-19T10:31:41;100490.31;;;10.96;88.77
48027;BME280;50714;49.208;5.364;2023-02-19T10:41:41;100466.69;;;11.13;87.56
48027;BME280;50714;49.208;5.364;2023-02-19T10:51:42;100490.75;;;11.08;86.31
48027;BME280;50714;49.208;5.364;2023-02-19T11:01:53;100480.13;;;11.06;84.61
48027;BME280;50714;49.208;5.364;2023-02-19T11:11:55;100480.53;;;10.95;85.20
48027;BME280;50714;49.208;5.364;2023-02-19T11:21:58;100492.44;;;10.86;85.15
48027;BME280;50714;49.208;5.364;2023-02-19T11:32:28;100500.25;;;10.81;84.42
48027;BME280;50714;49.208;5.364;2023-02-19T11:42:44;100515.69;;;10.87;84.52
48027;BME280;50714;49.208;5.364;2023-02-19T12:23:38;100513.47;;;11.66;77.88
48027;BME280;50714;49.208;5.364;2023-02-19T13:04:09;100505.06;;;11.46;77.57
48027;BME280;50714;49.208;5.364;2023-02-19T13:14:38;100501.41;;;11.39;75.52
48027;BME280;50714;49.208;5.364;2023-02-19T13:24:40;100483.25;;;11.33;77.44
48027;BME280;50714;49.208;5.364;2023-02-19T13:44:48;100475.06;;;11.85;75.62
48027;BME280;50714;49.208;5.364;2023-02-19T13:54:49;100466.19;;;12.06;75.13
48027;BME280;50714;49.208;5.364;2023-02-19T14:04:54;100464.41;;;12.13;73.22
48027;BME280;50714;49.208;5.364;2023-02-19T14:14:56;100474.00;;;12.15;73.65
48027;BME280;50714;49.208;5.364;2023-02-19T14:24:57;100473.09;;;12.08;73.05
48027;BME280;50714;49.208;5.364;2023-02-19T14:34:58;100494.75;;;11.93;72.55
48027;BME280;50714;49.208;5.364;2023-02-19T14:45:02;100502.28;;;11.69;71.58
48027;BME280;50714;49.208;5.364;2023-02-19T14:55:08;100508.72;;;11.68;72.40
48027;BME280;50714;49.208;5.364;2023-02-19T15:05:16;100497.44;;;11.64;71.87
48027;BME280;50714;49.208;5.364;2023-02-19T15:15:21;100511.13;;;11.62;72.69
48027;BME280;50714;49.208;5.364;2023-02-19T15:25:26;100528.97;;;11.57;73.54
48027;BME280;50714;49.208;5.364;2023-02-19T15:35:29;100521.56;;;11.51;74.52
48027;BME280;50714;49.208;5.364;2023-02-19T15:45:40;100535.66;;;11.61;73.45
48027;BME280;50714;49.208;5.364;2023-02-19T16:26:09;100517.38;;;11.34;74.28
48027;BME280;50714;49.208;5.364;2023-02-19T16:36:23;100507.16;;;11.21;74.39
48027;BME280;50714;49.208;5.364;2023-02-19T16:46:25;100513.38;;;11.07;75.12
48027;BME280;50714;49.208;5.364;2023-02-19T16:56:26;100517.38;;;10.88;75.46
48027;BME280;50714;49.208;5.364;2023-02-19T17:06:26;100512.09;;;10.72;76.28
48027;BME280;50714;49.208;5.364;2023-02-19T17:16:28;100548.09;;;10.64;77.09
48027;BME280;50714;49.208;5.364;2023-02-19T17:26:31;100565.75;;;10.44;77.36
48027;BME280;50714;49.208;5.364;2023-02-19T17:36:32;100587.91;;;10.31;77.30
48027;BME280;50714;49.208;5.364;2023-02-19T17:46:32;100600.09;;;10.19;77.90
48027;BME280;50714;49.208;5.364;2023-02-19T17:56:33;100601.78;;;10.12;77.82
48027;BME280;50714;49.208;5.364;2023-02-19T18:06:34;100606.19;;;10.05;77.79
48027;BME280;50714;49.208;5.364;2023-02-19T18:16:35;100611.59;;;9.97;77.87
48027;BME280;50714;49.208;5.364;2023-02-19T18:26:35;100622.69;;;10.02;77.85
48027;BME280;50714;49.208;5.364;2023-02-19T18:36:35;100644.63;;;10.07;77.30
48027;BME280;50714;49.208;5.364;2023-02-19T18:46:36;100649.00;;;10.08;77.46
48027;BME280;50714;49.208;5.364;2023-02-19T18:56:43;100650.69;;;10.09;76.69
48027;BME280;50714;49.208;5.364;2023-02-19T19:06:44;100657.25;;;9.98;77.10
48027;BME280;50714;49.208;5.364;2023-02-19T19:16:45;100663.34;;;9.84;77.50
48027;BME280;50714;49.208;5.364;2023-02-19T19:26:46;100660.16;;;9.80;77.79
48027;BME280;50714;49.208;5.364;2023-02-19T19:36:47;100666.06;;;9.76;77.94
48027;BME280;50714;49.208;5.364;2023-02-19T19:46:47;100656.28;;;9.58;78.42
48027;BME280;50714;49.208;5.364;2023-02-19T19:56:47;100663.69;;;9.32;78.81
48027;BME280;50714;49.208;5.364;2023-02-19T20:06:50;100665.53;;;9.15;78.42
48027;BME280;50714;49.208;5.364;2023-02-19T20:16:51;100658.84;;;8.77;78.44
48027;BME280;50714;49.208;5.364;2023-02-19T20:26:52;100652.22;;;8.55;79.42
48027;BME280;50714;49.208;5.364;2023-02-19T20:36:53;100673.47;;;8.33;79.24
48027;BME280;50714;49.208;5.364;2023-02-19T20:46:54;100682.34;;;8.07;80.45
48027;BME280;50714;49.208;5.364;2023-02-19T20:56:58;100698.53;;;7.90;81.07
48027;BME280;50714;49.208;5.364;2023-02-19T21:06:58;100693.72;;;7.75;82.67
48027;BME280;50714;49.208;5.364;2023-02-19T21:16:59;100692.56;;;7.78;83.18
48027;BME280;50714;49.208;5.364;2023-02-19T21:26:59;100687.50;;;7.75;83.29
48027;BME280;50714;49.208;5.364;2023-02-19T21:37:00;100698.59;;;7.54;82.34
48027;BME280;50714;49.208;5.364;2023-02-19T21:47:00;100699.34;;;7.29;83.63
48027;BME280;50714;49.208;5.364;2023-02-19T21:57:01;100705.94;;;7.16;83.93
48027;BME280;50714;49.208;5.364;2023-02-19T22:07:02;100708.38;;;7.10;83.67
48027;BME280;50714;49.208;5.364;2023-02-19T22:17:02;100705.13;;;6.89;83.84
48027;BME280;50714;49.208;5.364;2023-02-19T22:27:03;100713.56;;;6.66;84.13
48027;BME280;50714;49.208;5.364;2023-02-19T22:37:03;100717.84;;;6.59;85.08
48027;BME280;50714;49.208;5.364;2023-02-19T22:47:03;100727.41;;;6.34;nan
48027;BME280;50714;49.208;5.364;2023-02-19T22:57:04;100723.16;;;6.32;84.68
48027;BME280;50714;49.208;5.364;2023-02-19T23:07:05;100712.59;;;6.30;85.21
48027;BME280;50714;49.208;5.364;2023-02-19T23:17:05;100708.84;;;6.04;85.65
48027;BME280;50714;49.208;5.364;2023-02-19T23:27:06;100712.53;;;6.03;84.49
48027;BME280;50714;49.208;5.364;2023-02-19T23:37:06;100718.03;;;5.82;84.56
48027;BME280;50714;49.208;5.364;2023-02-19T23:47:07;100732.41;;;5.71;85.76
48027;BME280;50714;49.208;5.364;2023-02-19T23:57:07;100729.75;;;5.52;85.15
